Time;durP1;ratioP1;P1;durP2;ratioP2;P2;SDS_P1;SDS_P2;PMS_P1;PMS_P2;Temp;Humidity;BMP_temperature;BMP_pressure;BME280_temperature;BME280_humidity;BME280_pressure;Samples;Min_cycle;Max_cycle;Signal;HPM_P1;HPM_P2
2023/12/12 00:00:36;;;;;;;1.98;1.87;;;;;;;5.08;59.46;99176.00;5222745;27;20067;-96
2023/12/12 00:03:30;;;;;;;0.57;0.57;;;;;;;5.03;59.46;99183.84;5289030;27;20151;-96
2023/12/12 00:05:55;;;;;;;0.55;0.55;;;;;;;5.13;59.46;99192.25;5329183;26;20131;-96
2023/12/12 00:08:26;;;;;;;1.50;1.40;;;;;;;5.10;59.46;99182.84;5336545;26;20076;-96
2023/12/12 00:16:32;;;;;;;10.38;2.45;;;;;;;5.00;59.45;99180.47;5366870;26;20063;-96
2023/12/12 00:19:13;;;;;;;1.95;1.45;;;;;;;5.02;59.46;99189.03;5345479;26;20024;-96
2023/12/12 00:22:18;;;;;;;;;;;;;;;;;;;;;
2023/12/12 00:24:44;;;;;;;1.00;0.90;;;;;;;5.45;59.48;99194.22;5378606;26;36257;-96
2023/12/12 00:27:16;;;;;;;0.95;0.93;;;;;;;5.44;59.48;99195.97;5342296;26;20067;-96
2023/12/12 00:29:45;;;;;;;0.62;0.55;;;;;;;5.55;59.49;99206.06;5359827;26;20072;-96
2023/12/12 00:32:16;;;;;;;8.52;1.35;;;;;;;5.33;59.48;99209.94;5358092;26;20045;-96
2023/12/12 01:03:23;;;;;;;30.40;1.48;;;;;;;5.19;59.47;99207.59;5403797;26;20066;-96
2023/12/12 01:05:52;;;;;;;0.30;0.30;;;;;;;5.12;59.46;99201.72;5399227;26;20062;-96
2023/12/12 01:08:42;;;;;;;4.10;3.75;;;;;;;4.86;59.44;99215.09;5384679;26;20120;-96
2023/12/12 01:11:07;;;;;;;1.33;1.30;;;;;;;4.65;59.44;99212.88;5364165;26;20027;-96
2023/12/12 01:13:35;;;;;;;0.77;0.77;;;;;;;4.60;59.43;99210.38;5365041;26;20433;-95
2023/12/12 01:16:10;;;;;;;0.98;0.98;;;;;;;4.73;59.44;99200.72;5386721;26;20035;-95
2023/12/12 01:19:05;;;;;;;0.80;0.70;;;;;;;4.73;59.44;99212.75;5377662;26;20040;-96
2023/12/12 01:21:46;;;;;;;0.40;0.40;;;;;;;4.81;59.45;99213.47;5409140;26;20063;-96
2023/12/12 01:24:19;;;;;;;17.60;3.03;;;;;;;4.89;59.45;99212.44;5380115;26;20043;-96
2023/12/12 01:26:46;;;;;;;1.40;1.30;;;;;;;4.78;59.44;99213.53;5379527;26;20043;-96
2023/12/12 01:29:18;;;;;;;0.70;0.70;;;;;;;4.80;59.45;99215.22;5358569;26;20023;-96
2023/12/12 01:32:10;;;;;;;0.80;0.80;;;;;;;4.94;59.46;99212.38;5382191;26;20074;-96
2023/12/12 01:37:34;;;;;;;1.50;0.77;;;;;;;4.83;59.44;99211.72;5394517;26;20075;-96
2023/12/12 01:40:11;;;;;;;1.45;1.35;;;;;;;4.77;59.44;99209.25;5377820;26;20069;-96
2023/12/12 01:42:45;;;;;;;1.62;1.52;;;;;;;4.86;59.44;99206.50;5379106;26;20080;-95
2023/12/12 01:45:24;;;;;;;1.75;1.48;;;;;;;4.79;59.45;99198.03;5382945;26;20031;-96
2023/12/12 01:48:03;;;;;;;1.27;1.17;;;;;;;4.83;59.44;99196.25;5401971;26;20020;-96
2023/12/12 01:50:54;;;;;;;1.33;1.17;;;;;;;4.96;59.45;99212.34;5406108;26;20054;-96
2023/12/12 01:53:44;;;;;;;11.15;2.65;;;;;;;5.07;59.46;99203.53;5421995;26;20046;-96
2023/12/12 01:56:19;;;;;;;1.30;1.25;;;;;;;5.19;59.47;99192.97;5406459;26;20012;-96
2023/12/12 01:58:51;;;;;;;0.90;0.82;;;;;;;5.05;59.45;99197.56;5404929;26;20652;-96
2023/12/12 02:01:21;;;;;;;1.70;1.60;;;;;;;5.07;59.46;99203.53;5398444;26;20060;-96
2023/12/12 02:03:48;;;;;;;1.73;1.12;;;;;;;5.03;59.46;99194.16;5400472;26;20031;-96
2023/12/12 02:06:14;;;;;;;0.52;0.52;;;;;;;5.09;59.46;99206.94;5393732;26;20823;-96
2023/12/12 02:08:41;;;;;;;2.95;1.65;;;;;;;5.07;59.46;99206.13;5393934;26;20653;-96
2023/12/12 02:11:08;;;;;;;0.98;0.95;;;;;;;5.08;59.46;99204.41;5394908;26;20034;-96
2023/12/12 02:13:38;;;;;;;8.43;3.42;;;;;;;4.96;59.45;99208.03;5394952;26;20024;-96
2023/12/12 02:16:04;;;;;;;2.87;1.67;;;;;;;4.94;59.44;99202.06;5397493;26;20119;-96
2023/12/12 02:18:32;;;;;;;2.90;2.55;;;;;;;5.16;59.45;99202.50;5379275;26;20097;-96
2023/12/12 02:21:01;;;;;;;2.22;2.12;;;;;;;5.19;59.47;99197.28;5414082;26;20056;-96
2023/12/12 02:23:48;;;;;;;1.75;1.62;;;;;;;5.25;59.47;99194.63;5395354;26;20028;-96
2023/12/12 02:26:18;;;;;;;1.92;1.80;;;;;;;5.08;59.46;99188.91;5410873;26;20026;-96
2023/12/12 02:29:59;;;;;;;4.80;3.90;;;;;;;5.03;59.46;99188.16;5391952;26;20051;-96
2023/12/12 02:35:22;;;;;;;0.43;0.43;;;;;;;5.06;59.46;99193.25;5314999;26;20076;-96
2023/12/12 02:38:04;;;;;;;1.92;1.83;;;;;;;5.12;59.46;99193.97;5290608;27;20155;-96
2023/12/12 02:40:41;;;;;;;0.40;0.40;;;;;;;5.13;59.46;99193.09;5328211;26;20064;-95
2023/12/12 02:43:23;;;;;;;2.53;2.10;;;;;;;5.13;59.47;99200.00;5299479;27;20182;-96
2023/12/12 02:45:54;;;;;;;2.37;2.17;;;;;;;5.05;59.46;99189.81;5334471;27;20029;-96
2023/12/12 02:48:20;;;;;;;2.60;1.45;;;;;;;5.03;59.46;99195.91;5305108;27;20122;-96
2023/12/12 02:50:45;;;;;;;1.30;1.30;;;;;;;5.11;59.46;99197.44;5305026;27;20177;-96
2023/12/12 02:53:11;;;;;;;3.08;2.80;;;;;;;5.31;59.47;99196.22;5335200;26;20108;-96
2023/12/12 02:55:36;;;;;;;0.65;0.65;;;;;;;5.31;59.48;99191.91;5372310;26;20074;-96
2023/12/12 02:58:03;;;;;;;5.43;1.20;;;;;;;5.32;59.48;99192.75;5373632;26;20420;-96
2023/12/12 03:00:29;;;;;;;2.47;2.28;;;;;;;5.44;59.48;99195.97;5374755;26;20044;-96
2023/12/12 03:02:55;;;;;;;1.00;1.00;;;;;;;5.43;59.48;99207.13;5373225;26;20051;-96
2023/12/12 03:05:20;;;;;;;1.73;1.62;;;;;;;5.39;59.48;99205.50;5372751;26;20628;-96
2023/12/12 03:07:46;;;;;;;2.60;1.45;;;;;;;5.53;59.49;99210.41;5373661;26;20020;-96
2023/12/12 03:10:12;;;;;;;0.82;0.82;;;;;;;5.49;59.48;99211.34;5373037;26;20048;-95
2023/12/12 03:12:37;;;;;;;4.10;1.75;;;;;;;5.56;59.49;99215.50;5372516;26;20063;-96
2023/12/12 03:15:04;;;;;;;2.45;2.33;;;;;;;5.74;59.50;99214.28;5372967;26;20353;-96
2023/12/12 03:17:30;;;;;;;1.27;1.17;;;;;;;5.74;59.49;99214.28;5391823;26;20776;-96
2023/12/12 03:19:56;;;;;;;1.00;0.90;;;;;;;5.63;59.49;99211.03;5395321;26;20046;-96
2023/12/12 03:22:24;;;;;;;0.98;0.93;;;;;;;5.62;59.49;99225.69;5375322;26;20079;-96
2023/12/12 03:25:16;;;;;;;1.40;1.30;;;;;;;5.71;59.50;99219.50;5376980;26;20068;-96
2023/12/12 03:27:44;;;;;;;2.30;2.08;;;;;;;5.47;59.48;99223.44;5393958;26;20020;-96
2023/12/12 03:30:12;;;;;;;0.45;0.45;;;;;;;5.60;59.48;99229.19;5376201;26;20100;-96
2023/12/12 03:32:40;;;;;;;0.75;0.75;;;;;;;5.57;59.49;99224.09;5375838;26;20055;-96
2023/12/12 03:35:08;;;;;;;1.60;1.50;;;;;;;5.60;59.48;99234.34;5394939;26;20035;-96
2023/12/12 03:37:35;;;;;;;3.03;1.87;;;;;;;5.69;59.50;99229.03;5375260;26;20062;-96
2023/12/12 03:40:03;;;;;;;4.50;1.20;;;;;;;5.60;59.48;99237.78;5359471;26;20073;-96
2023/12/12 03:42:36;;;;;;;2.78;1.85;;;;;;;5.56;59.49;99241.31;5403335;26;20020;-96
2023/12/12 03:45:30;;;;;;;0.88;0.88;;;;;;;5.52;59.48;99242.25;5400791;26;20034;-96
2023/12/12 03:47:58;;;;;;;1.10;1.02;;;;;;;5.53;59.49;99242.22;5354857;26;20034;-95
2023/12/12 03:50:51;;;;;;;2.90;2.35;;;;;;;5.51;59.48;99245.72;5317172;26;20052;-96
2023/12/12 03:54:20;;;;;;;1.23;1.17;;;;;;;5.45;59.48;99235.53;5384625;26;20173;-96
2023/12/12 03:56:55;;;;;;;1.65;1.55;;;;;;;5.43;59.48;99245.84;5382990;26;20040;-96
2023/12/12 03:59:28;;;;;;;1.10;1.00;;;;;;;5.43;59.48;99245.00;5362949;26;20038;-96
2023/12/12 04:01:53;;;;;;;3.60;3.15;;;;;;;5.50;59.48;99238.84;5345138;26;20027;-96
2023/12/12 04:04:21;;;;;;;3.20;2.95;;;;;;;5.36;59.47;99246.00;5322430;26;20080;-96
2023/12/12 04:06:51;;;;;;;3.92;1.77;;;;;;;5.40;59.48;99250.22;5361187;26;20088;-96
2023/12/12 04:09:18;;;;;;;;;;;;;;;5.50;59.48;99250.03;5361159;26;20067;-96
2023/12/12 04:11:44;;;;;;;3.60;2.37;;;;;;;5.57;59.49;99249.91;5343517;26;19955;-96
2023/12/12 04:14:10;;;;;;;0.90;0.85;;;;;;;5.59;59.49;99253.31;5332180;26;20363;-96
2023/12/12 04:17:16;;;;;;;2.25;2.15;;;;;;;5.71;59.50;99251.34;5338825;26;20024;-96
2023/12/12 04:20:05;;;;;;;1.25;1.17;;;;;;;5.76;59.50;99246.94;5379865;26;20059;-95
2023/12/12 04:30:18;;;;;;;4.80;2.65;;;;;;;5.41;59.48;99254.50;5414440;26;20075;-96
2023/12/12 04:32:46;;;;;;;0.50;0.50;;;;;;;5.38;59.47;99249.41;5366787;26;20034;-96
2023/12/12 04:35:23;;;;;;;1.35;0.68;;;;;;;5.42;59.48;99251.03;5386090;26;20059;-96
2023/12/12 04:37:50;;;;;;;1.65;1.55;;;;;;;5.36;59.47;99264.06;5402589;26;20043;-96
2023/12/12 04:40:15;;;;;;;0.82;0.82;;;;;;;5.44;59.48;99264.75;5361088;26;20407;-94
2023/12/12 04:56:05;;;;;;;0.62;0.62;;;;;;;5.47;59.48;99246.66;5405028;26;20031;-96
2023/12/12 05:01:52;;;;;;;4.60;2.65;;;;;;;5.63;59.49;99250.62;5357295;26;20044;-96
2023/12/12 05:04:21;;;;;;;3.35;1.10;;;;;;;5.60;59.48;99263.59;5351049;26;20024;-96
2023/12/12 05:06:54;;;;;;;0.98;0.98;;;;;;;5.56;59.49;99269.72;5329684;26;20076;-95
2023/12/12 05:09:22;;;;;;;0.82;0.52;;;;;;;5.79;59.50;99275.25;5354880;26;20024;-96
2023/12/12 05:11:48;;;;;;;1.60;0.65;;;;;;;5.99;59.51;99258.53;5312882;26;20031;-96
2023/12/12 05:14:14;;;;;;;2.95;2.75;;;;;;;5.96;59.51;99256.88;5312968;26;20598;-95
2023/12/12 05:20:11;;;;;;;0.17;0.17;;;;;;;5.93;59.51;99269.87;5362671;26;20169;-96
2023/12/12 05:25:23;;;;;;;6.40;2.17;;;;;;;5.79;59.50;99272.69;5401683;26;20079;-95
2023/12/12 05:27:56;;;;;;;1.10;1.10;;;;;;;5.75;59.49;99270.19;5385172;26;20112;-96
2023/12/12 05:30:31;;;;;;;0.40;0.40;;;;;;;5.76;59.49;99271.91;5365095;26;20064;-95
2023/12/12 05:34:02;;;;;;;;;;;;;;;;;;;;;
2023/12/12 05:40:56;;;;;;;;;;;;;;;;;;;;;
2023/12/12 05:44:15;;;;;;;;;;;;;;;;;;;;;
2023/12/12 05:46:55;;;;;;;;;;;;;;;;;;;;;
2023/12/12 05:49:37;;;;;;;2.75;2.30;;;;;;;6.10;59.52;99272.91;5265293;27;35735;-93
2023/12/12 05:57:25;;;;;;;;;;;;;;;;;;;;;
2023/12/12 06:03:02;;;;;;;0.47;0.47;;;;;;;5.96;59.51;99303.38;5317989;26;20044;-93
2023/12/12 06:05:40;;;;;;;;;;;;;;;;;;;;;
2023/12/12 06:08:08;;;;;;;0.57;0.57;;;;;;;6.17;59.52;99303.81;5339707;26;35208;-94
2023/12/12 06:10:37;;;;;;;0.10;0.10;;;;;;;6.24;59.52;99290.72;5330334;26;20114;-93
2023/12/12 06:13:15;;;;;;;;;;;;;;;;;;;;;
2023/12/12 06:15:41;;;;;;;2.72;1.55;;;;;;;6.34;59.53;99309.44;5388353;26;37279;-91
2023/12/12 06:18:07;;;;;;;0.20;0.20;;;;;;;6.32;59.52;99312.06;5389533;26;20066;-94
2023/12/12 06:20:38;;;;;;;1.77;0.93;;;;;;;6.38;59.53;99318.84;5370889;26;20051;-93
2023/12/12 06:23:28;;;;;;;0.10;0.10;;;;;;;6.29;59.53;99313.88;5371150;26;20333;-94
2023/12/12 06:26:27;;;;;;;;;;;;;;;;;;;;;
2023/12/12 06:29:46;;;;;;;;;;;;;;;;;;;;;
2023/12/12 06:32:22;;;;;;;;;;;;;;;;;;;;;
2023/12/12 06:35:26;;;;;;;0.70;0.55;;;;;;;6.85;59.56;99319.50;5388660;26;36974;-94
2023/12/12 06:38:15;;;;;;;0.55;0.55;;;;;;;6.84;59.56;99320.38;5409243;26;20024;-94
2023/12/12 06:40:44;;;;;;;0.52;0.52;;;;;;;6.74;59.55;99325.78;5389647;26;20074;-93
2023/12/12 06:46:38;;;;;;;0.75;0.75;;;;;;;6.79;59.55;99317.91;5320398;27;20689;-95
2023/12/12 06:49:16;;;;;;;;;;;;;;;;;;;;;
2023/12/12 07:02:46;;;;;;;;;;;;;;;;;;;;;
2023/12/12 07:05:56;;;;;;;;;;;;;;;;;;;;;
2023/12/12 07:09:04;;;;;;;;;;;;;;;;;;;;;
2023/12/12 07:15:13;;;;;;;2.75;2.55;;;;;;;6.96;59.57;99349.41;5373939;26;20074;-94
2023/12/12 07:18:28;;;;;;;;;;;;;;;;;;;;;
2023/12/12 07:25:15;;;;;;;;;;;;;;;;;;;;;
2023/12/12 07:45:11;;;;;;;2.50;0.75;;;;;;;7.93;59.62;99369.34;5344656;26;20057;-94
2023/12/12 07:48:21;;;;;;;0.20;0.20;;;;;;;7.71;59.61;99370.81;5298836;27;20775;-94
2023/12/12 08:30:43;;;;;;;;;;;;;;;;;;;;;
2023/12/12 08:34:00;;;;;;;;;;;;;;;;;;;;;
2023/12/12 08:37:08;;;;;;;;;;;;;;;;;;;;;
2023/12/12 08:43:34;;;;;;;;;;;;;;;;;;;;;
2023/12/12 10:32:38;;;;;;;;;;;;;;;;;;;;;
2023/12/12 10:35:44;;;;;;;;;;;;;;;;;;;;;
2023/12/12 10:45:00;;;;;;;0.00;0.00;;;;;;;12.09;59.84;99343.19;5237666;27;20626;-95
2023/12/12 10:47:36;;;;;;;0.30;0.30;;;;;;;12.30;59.86;99346.56;5240306;27;20057;-95
2023/12/12 10:50:37;;;;;;;;;;;;;;;;;;;;;
2023/12/12 11:05:03;;;;;;;;;;;;;;;;;;;;;
2023/12/12 11:08:08;;;;;;;;;;;;;;;;;;;;;
2023/12/12 11:11:39;;;;;;;;;;;;;;;;;;;;;
2023/12/12 11:15:40;;;;;;;;;;;;;;;;;;;;;
2023/12/12 11:18:28;;;;;;;2.58;2.15;;;;;;;12.57;59.87;99334.03;5153115;27;20106;-93
2023/12/12 11:24:34;;;;;;;;;;;;;;;;;;;;;
2023/12/12 11:27:26;;;;;;;4.47;0.80;;;;;;;12.59;59.87;99340.88;5217041;27;34461;-95
2023/12/12 11:30:55;;;;;;;;;;;;;;;;;;;;;
2023/12/12 11:40:41;;;;;;;5.85;1.27;;;;;;;12.90;59.89;99334.19;5200789;27;20125;-95
2023/12/12 11:43:41;;;;;;;0.52;0.52;;;;;;;12.69;59.88;99335.22;5239618;27;20064;-96
2023/12/12 11:46:21;;;;;;;8.27;1.50;;;;;;;12.73;59.89;99331.53;5239666;27;20635;-95
2023/12/12 11:49:08;;;;;;;0.20;0.20;;;;;;;12.93;59.89;99320.13;5238814;27;20156;-95
2023/12/12 11:51:49;;;;;;;0.55;0.55;;;;;;;12.85;59.89;99323.13;5238230;27;20694;-95
2023/12/12 11:54:30;;;;;;;1.98;0.47;;;;;;;13.16;59.90;99325.94;5239889;27;20050;-95
2023/12/12 11:57:03;;;;;;;2.37;1.45;;;;;;;12.96;59.90;99326.06;5237950;27;20096;-94
2023/12/12 11:59:33;;;;;;;1.20;1.10;;;;;;;12.99;59.90;99331.13;5238769;27;20065;-95
2023/12/12 12:01:58;;;;;;;0.00;0.00;;;;;;;13.16;59.90;99320.72;5256359;27;20061;-96
2023/12/12 12:04:24;;;;;;;0.55;0.55;;;;;;;13.15;59.90;99320.78;5238283;27;20096;-94
2023/12/12 12:06:50;;;;;;;0.28;0.28;;;;;;;13.11;59.90;99320.09;5238880;27;20351;-94
2023/12/12 12:09:16;;;;;;;7.07;4.03;;;;;;;13.31;59.91;99310.47;5238759;27;20733;-96
2023/12/12 12:11:49;;;;;;;0.30;0.30;;;;;;;13.36;59.91;99309.28;5238621;27;20065;-95
2023/12/12 12:14:17;;;;;;;0.40;0.40;;;;;;;13.45;59.92;99307.97;5238985;27;20072;-95
2023/12/12 12:16:42;;;;;;;1.55;0.22;;;;;;;13.16;59.90;99302.41;5238829;27;20094;-96
2023/12/12 12:19:28;;;;;;;0.30;0.30;;;;;;;13.42;59.92;99298.53;5238919;27;20065;-95
2023/12/12 12:21:55;;;;;;;0.20;0.20;;;;;;;13.39;59.92;99295.22;5256777;27;20127;-95
2023/12/12 12:24:22;;;;;;;0.35;0.35;;;;;;;13.42;59.92;99295.91;5238944;27;20019;-95
2023/12/12 12:26:47;;;;;;;1.30;0.85;;;;;;;13.39;59.92;99292.59;5239137;27;20054;-95
2023/12/12 12:29:13;;;;;;;0.00;0.00;;;;;;;13.52;59.93;99291.06;5239008;27;20407;-96
2023/12/12 12:31:38;;;;;;;2.53;1.52;;;;;;;13.54;59.93;99291.00;5238705;27;20061;-96
2023/12/12 12:34:24;;;;;;;0.45;0.30;;;;;;;13.63;59.93;99291.34;5239078;27;20114;-95
2023/12/12 12:36:51;;;;;;;1.95;0.85;;;;;;;13.63;59.93;99296.59;5239007;27;20062;-95
2023/12/12 12:39:17;;;;;;;2.65;0.35;;;;;;;13.62;59.93;99294.03;5238784;27;20093;-95
2023/12/12 12:41:46;;;;;;;0.00;0.00;;;;;;;13.63;59.93;99280.88;5238601;27;20092;-95
2023/12/12 12:44:13;;;;;;;0.28;0.28;;;;;;;13.58;59.94;99285.53;5238578;27;20046;-95
2023/12/12 12:46:38;;;;;;;0.20;0.20;;;;;;;13.37;59.92;99292.69;5239085;27;20046;-95
2023/12/12 12:49:04;;;;;;;0.00;0.00;;;;;;;13.35;59.92;99284.09;5238973;27;20433;-95
2023/12/12 12:51:32;;;;;;;3.62;2.85;;;;;;;13.37;59.92;99290.06;5238575;27;20403;-94
2023/12/12 12:53:57;;;;;;;4.87;1.50;;;;;;;13.29;59.91;99289.63;5238701;27;20059;-95
2023/12/12 12:56:23;;;;;;;1.65;0.80;;;;;;;13.23;59.91;99289.91;5238724;27;20112;-94
2023/12/12 12:58:51;;;;;;;1.37;0.93;;;;;;;13.25;59.91;99279.38;5238918;27;20070;-94
2023/12/12 13:01:17;;;;;;;0.00;0.00;;;;;;;13.24;59.91;99281.16;5238341;27;20125;-94
2023/12/12 13:03:42;;;;;;;0.37;0.37;;;;;;;13.27;59.92;99278.41;5238116;27;20122;-96
2023/12/12 13:06:08;;;;;;;0.98;0.82;;;;;;;13.56;59.92;99279.53;5238516;27;20049;-95
2023/12/12 13:08:34;;;;;;;1.50;1.40;;;;;;;13.45;59.92;99274.00;5238057;27;20104;-94
2023/12/12 13:10:59;;;;;;;1.58;1.27;;;;;;;13.46;59.93;99267.84;5238760;27;20069;-95
2023/12/12 13:13:27;;;;;;;0.60;0.47;;;;;;;13.23;59.91;99262.94;5238246;27;20078;-95
2023/12/12 13:15:53;;;;;;;0.32;0.32;;;;;;;13.19;59.90;99254.41;5238517;27;20064;-95
2023/12/12 13:18:18;;;;;;;0.82;0.82;;;;;;;13.14;59.91;99251.16;5238601;27;20620;-95
2023/12/12 13:20:46;;;;;;;1.10;1.02;;;;;;;12.91;59.89;99252.28;5238515;27;20105;-95
2023/12/12 13:23:16;;;;;;;1.15;1.05;;;;;;;12.68;59.88;99258.66;5238907;27;20050;-95
2023/12/12 13:25:41;;;;;;;;;;;;;;;12.51;59.87;99267.28;5239456;27;20061;-95
2023/12/12 13:28:15;;;;;;;0.35;0.35;;;;;;;12.56;59.88;99261.84;5239020;27;19988;-95
2023/12/12 13:30:46;;;;;;;2.10;1.30;;;;;;;12.28;59.86;99268.34;5239170;27;20070;-95
2023/12/12 13:33:19;;;;;;;0.32;0.25;;;;;;;12.25;59.85;99265.88;5234762;27;20431;-96
2023/12/12 13:36:23;;;;;;;0.10;0.10;;;;;;;12.11;59.85;99273.53;5200166;27;20049;-95
2023/12/12 13:38:49;;;;;;;0.50;0.50;;;;;;;12.15;59.85;99285.50;5281572;27;20065;-94
2023/12/12 13:41:23;;;;;;;0.60;0.60;;;;;;;11.84;59.84;99293.88;5263715;27;20357;-95
2023/12/12 13:43:51;;;;;;;0.43;0.43;;;;;;;11.93;59.84;99285.63;5243339;27;20764;-94
2023/12/12 13:46:24;;;;;;;0.50;0.50;;;;;;;11.88;59.83;99291.97;5245874;27;20044;-94
2023/12/12 13:48:58;;;;;;;1.15;1.08;;;;;;;11.74;59.83;99296.91;5246643;27;20058;-94
2023/12/12 13:51:26;;;;;;;0.57;0.57;;;;;;;11.70;59.83;99309.25;5264311;27;20721;-94
2023/12/12 13:53:57;;;;;;;0.98;0.90;;;;;;;11.50;59.81;99307.47;5246185;27;20050;-93
2023/12/12 13:56:32;;;;;;;;;;;;;;;;;;;;;
2023/12/12 13:59:06;;;;;;;0.90;0.90;;;;;;;11.35;59.80;99306.38;5265490;27;36563;-95
2023/12/12 14:01:36;;;;;;;0.93;0.93;;;;;;;11.30;59.80;99312.69;5245266;27;20115;-94
2023/12/12 14:04:09;;;;;;;1.27;1.08;;;;;;;11.12;59.79;99313.44;5263792;27;20049;-94
2023/12/12 14:06:37;;;;;;;0.43;0.20;;;;;;;11.12;59.79;99308.22;5245106;27;20414;-92
2023/12/12 14:09:21;;;;;;;0.30;0.30;;;;;;;11.03;59.79;99301.66;5241177;27;20107;-94
2023/12/12 14:18:36;;;;;;;1.58;1.48;;;;;;;10.72;59.78;99305.50;5278332;27;20059;-93
2023/12/12 14:21:36;;;;;;;2.87;1.55;;;;;;;10.51;59.76;99308.94;5245613;27;20061;-94
2023/12/12 14:27:20;;;;;;;0.80;0.80;;;;;;;10.40;59.76;99321.50;5267501;27;20035;-95
2023/12/12 14:29:59;;;;;;;0.20;0.20;;;;;;;10.17;59.75;99332.72;5260036;27;20057;-94
2023/12/12 14:33:07;;;;;;;0.40;0.30;;;;;;;10.15;59.74;99326.75;5265621;27;20100;-94
2023/12/12 14:35:50;;;;;;;0.60;0.60;;;;;;;10.13;59.74;99313.81;5289303;27;20131;-94
2023/12/12 14:38:25;;;;;;;2.17;1.98;;;;;;;9.99;59.73;99310.88;5264649;27;20017;-94
2023/12/12 14:41:32;;;;;;;1.52;1.42;;;;;;;9.83;59.73;99317.53;5247932;27;20426;-96
2023/12/12 14:44:08;;;;;;;1.35;1.27;;;;;;;9.72;59.71;99322.28;5255109;27;20065;-93
2023/12/12 14:50:28;;;;;;;1.60;1.50;;;;;;;9.79;59.73;99308.16;5263440;27;20104;-94
2023/12/12 14:52:57;;;;;;;4.18;1.75;;;;;;;9.56;59.70;99316.75;5244294;27;20073;-93
2023/12/12 14:55:22;;;;;;;2.55;2.35;;;;;;;9.57;59.70;99307.22;5224635;27;20419;-93
2023/12/12 14:57:52;;;;;;;1.65;1.15;;;;;;;9.39;59.70;99306.09;5223918;27;20061;-93
2023/12/12 15:00:17;;;;;;;1.35;1.17;;;;;;;9.40;59.70;99305.19;5260406;27;20130;-94
2023/12/12 15:02:43;;;;;;;1.62;1.52;;;;;;;9.28;59.70;99298.66;5224532;27;20046;-93
2023/12/12 15:05:10;;;;;;;0.60;0.60;;;;;;;9.30;59.70;99298.63;5259434;27;20410;-93
2023/12/12 15:07:35;;;;;;;1.65;1.55;;;;;;;9.13;59.69;99294.84;5260334;27;20075;-92
2023/12/12 15:10:01;;;;;;;1.00;1.00;;;;;;;9.13;59.69;99291.38;5259811;27;20057;-92
2023/12/12 15:12:27;;;;;;;10.40;1.25;;;;;;;9.00;59.68;99290.13;5224572;27;20071;-92
2023/12/12 15:14:52;;;;;;;1.55;0.57;;;;;;;8.99;59.68;99284.06;5223964;27;20092;-93
2023/12/12 15:17:17;;;;;;;1.58;1.48;;;;;;;8.96;59.67;99283.31;5259798;27;20449;-93
2023/12/12 15:19:43;;;;;;;0.32;0.32;;;;;;;9.09;59.68;99279.41;5223585;27;20053;-93
2023/12/12 15:22:08;;;;;;;0.85;0.85;;;;;;;9.10;59.69;99266.38;5223965;27;20219;-93
2023/12/12 15:24:34;;;;;;;3.60;2.15;;;;;;;9.05;59.69;99270.03;5259903;27;20065;-93
2023/12/12 15:26:59;;;;;;;9.00;3.05;;;;;;;9.14;59.69;99267.97;5224064;27;20369;-93
2023/12/12 15:29:25;;;;;;;1.58;1.48;;;;;;;9.05;59.69;99267.44;5259712;27;20108;-94
2023/12/12 15:31:51;;;;;;;2.60;2.40;;;;;;;8.96;59.67;99272.91;5241192;27;20099;-93
2023/12/12 15:34:16;;;;;;;2.62;1.37;;;;;;;8.91;59.68;99271.31;5259968;27;20459;-91
2023/12/12 15:36:41;;;;;;;6.35;3.55;;;;;;;8.87;59.67;99261.94;5242295;27;20099;-92
2023/12/12 15:39:07;;;;;;;0.82;0.75;;;;;;;8.87;59.67;99256.75;5224018;27;20421;-92
2023/12/12 15:41:33;;;;;;;4.78;1.67;;;;;;;8.95;59.67;99253.91;5241340;27;20327;-91
2023/12/12 15:43:59;;;;;;;1.98;1.85;;;;;;;9.08;59.68;99256.94;5223643;27;20050;-92
2023/12/12 15:46:24;;;;;;;9.05;4.75;;;;;;;9.29;59.70;99258.81;5259758;27;20103;-91
2023/12/12 15:48:50;;;;;;;3.92;3.58;;;;;;;9.15;59.69;99266.22;5259904;27;20063;-92
2023/12/12 15:51:15;;;;;;;0.30;0.30;;;;;;;8.97;59.67;99272.00;5226301;27;20071;-92
2023/12/12 15:53:41;;;;;;;2.12;1.85;;;;;;;8.82;59.67;99265.59;5259545;27;20054;-94
2023/12/12 15:56:10;;;;;;;0.88;0.88;;;;;;;8.63;59.66;99264.50;5259671;27;20070;-94
2023/12/12 15:58:35;;;;;;;1.55;1.20;;;;;;;8.43;59.64;99252.13;5224071;27;20072;-93
2023/12/12 16:01:01;;;;;;;1.80;1.62;;;;;;;8.36;59.64;99261.87;5259121;27;20105;-91
2023/12/12 16:03:27;;;;;;;7.40;3.87;;;;;;;8.36;59.64;99264.47;5239770;27;20062;-90
2023/12/12 16:05:52;;;;;;;5.32;4.80;;;;;;;8.72;59.67;99270.22;5259824;27;20400;-93
2023/12/12 16:08:18;;;;;;;6.22;3.03;;;;;;;8.34;59.64;99262.81;5225731;27;20080;-92
2023/12/12 16:10:43;;;;;;;2.28;2.08;;;;;;;8.29;59.63;99257.75;5224388;27;20087;-92
2023/12/12 16:13:08;;;;;;;1.15;1.15;;;;;;;8.18;59.64;99267.56;5260077;27;20410;-93
2023/12/12 16:15:34;;;;;;;4.22;0.80;;;;;;;8.14;59.64;99259.03;5226538;27;20364;-93
2023/12/12 16:17:59;;;;;;;0.52;0.52;;;;;;;8.15;59.64;99265.06;5259923;27;20053;-93
2023/12/12 16:21:19;;;;;;;0.77;0.77;;;;;;;8.24;59.64;99252.66;5242507;27;20045;-92
2023/12/12 16:23:44;;;;;;;2.08;1.10;;;;;;;7.90;59.61;99265.78;5262458;27;20450;-93
2023/12/12 16:26:10;;;;;;;1.02;0.82;;;;;;;7.92;59.62;99253.63;5260023;27;20157;-92
2023/12/12 16:28:35;;;;;;;0.50;0.50;;;;;;;7.90;59.62;99255.44;5224015;27;20104;-93
2023/12/12 16:31:18;;;;;;;5.47;1.73;;;;;;;7.73;59.61;99267.16;5223686;27;20092;-93
2023/12/12 16:34:35;;;;;;;2.15;2.05;;;;;;;7.66;59.60;99269.94;5242497;27;20053;-92
2023/12/12 16:37:00;;;;;;;1.30;1.20;;;;;;;7.51;59.60;99270.34;5224260;27;20076;-93
2023/12/12 16:39:26;;;;;;;1.83;1.55;;;;;;;7.49;59.60;99269.53;5260157;27;20061;-92
2023/12/12 16:42:24;;;;;;;1.10;1.10;;;;;;;7.65;59.60;99270.81;5241315;27;20060;-91
2023/12/12 16:45:05;;;;;;;0.57;0.57;;;;;;;7.59;59.60;99260.63;5260325;27;20418;-91
2023/12/12 16:48:29;;;;;;;2.47;2.30;;;;;;;7.59;59.60;99258.03;5223195;27;20065;-91
2023/12/12 16:50:55;;;;;;;0.30;0.30;;;;;;;7.50;59.60;99249.66;5259257;27;20068;-92
2023/12/12 16:53:21;;;;;;;0.85;0.70;;;;;;;7.39;59.58;99248.22;5241820;27;20072;-92
2023/12/12 16:56:33;;;;;;;2.75;1.40;;;;;;;7.38;59.58;99256.88;5262272;27;20096;-91
2023/12/12 17:00:20;;;;;;;2.35;1.65;;;;;;;7.38;59.58;99254.31;5260736;27;20065;-93
2023/12/12 17:02:26;;;;;;;0.30;0.30;;;;;;;7.31;59.58;99242.38;5274935;27;20148;-91
2023/12/12 17:04:53;;;;;;;0.05;0.05;;;;;;;7.33;59.59;99238.03;5227473;27;20450;-92
2023/12/12 17:07:18;;;;;;;0.52;0.52;;;;;;;7.43;59.59;99225.69;5229886;27;20102;-92
2023/12/12 17:09:44;;;;;;;0.40;0.40;;;;;;;7.35;59.59;99227.66;5224356;27;20081;-92
2023/12/12 17:12:09;;;;;;;3.60;2.22;;;;;;;7.21;59.58;99232.34;5260580;27;20071;-91
2023/12/12 17:14:35;;;;;;;0.95;0.95;;;;;;;7.25;59.59;99231.34;5224717;27;20096;-93
2023/12/12 17:17:01;;;;;;;3.20;0.90;;;;;;;7.21;59.58;99245.28;5260908;27;20107;-92
2023/12/12 17:19:27;;;;;;;0.73;0.62;;;;;;;7.19;59.58;99234.13;5242741;27;20470;-93
2023/12/12 17:21:53;;;;;;;0.57;0.40;;;;;;;7.09;59.57;99230.91;5260643;27;20132;-92
2023/12/12 17:24:20;;;;;;;1.62;1.52;;;;;;;7.04;59.57;99225.84;5260844;27;20423;-93
2023/12/12 17:26:46;;;;;;;0.37;0.30;;;;;;;7.00;59.57;99231.16;5226278;27;20677;-92
2023/12/12 17:29:11;;;;;;;0.32;0.32;;;;;;;7.20;59.58;99225.47;5225451;27;20057;-92
2023/12/12 17:31:36;;;;;;;0.50;0.50;;;;;;;7.24;59.58;99220.16;5227090;27;20053;-91
2023/12/12 17:34:02;;;;;;;1.12;1.02;;;;;;;7.12;59.58;99227.41;5259813;27;20060;-93
2023/12/12 17:36:28;;;;;;;1.52;1.42;;;;;;;7.08;59.57;99219.69;5260277;27;20368;-92
2023/12/12 17:38:53;;;;;;;0.60;0.57;;;;;;;7.07;59.57;99207.66;5224647;27;20073;-93
2023/12/12 17:41:19;;;;;;;0.30;0.30;;;;;;;7.05;59.57;99201.66;5242481;27;20053;-92
2023/12/12 17:43:45;;;;;;;1.37;1.27;;;;;;;7.19;59.58;99197.88;5242448;27;20077;-92
2023/12/12 17:46:10;;;;;;;1.55;0.45;;;;;;;7.16;59.58;99191.06;5223876;27;20077;-92
2023/12/12 17:48:36;;;;;;;4.22;0.98;;;;;;;7.17;59.57;99202.25;5262290;27;20076;-91
2023/12/12 17:51:02;;;;;;;0.55;0.52;;;;;;;7.05;59.57;99209.44;5223575;27;20434;-93
2023/12/12 17:53:27;;;;;;;0.25;0.25;;;;;;;7.27;59.58;99211.44;5258653;27;20107;-93
2023/12/12 17:55:53;;;;;;;0.28;0.28;;;;;;;7.11;59.58;99217.94;5222972;27;20112;-90
2023/12/12 17:58:19;;;;;;;1.58;1.48;;;;;;;7.15;59.57;99225.59;5241832;27;20049;-93
2023/12/12 18:00:45;;;;;;;1.85;1.40;;;;;;;7.34;59.59;99220.78;5260268;27;20053;-92
2023/12/12 18:03:11;;;;;;;3.80;2.55;;;;;;;7.11;59.58;99230.87;5241752;27;20119;-91
2023/12/12 18:05:39;;;;;;;4.65;3.75;;;;;;;7.13;59.57;99229.97;5260273;27;20049;-92
2023/12/12 18:08:05;;;;;;;2.72;1.20;;;;;;;7.05;59.57;99212.03;5227101;27;20053;-91
2023/12/12 18:10:31;;;;;;;3.90;1.65;;;;;;;7.27;59.58;99201.09;5260896;27;20099;-93
2023/12/12 18:13:50;;;;;;;0.45;0.45;;;;;;;7.36;59.59;99187.91;5226665;27;20042;-90